Time;durP1;ratioP1;P1;durP2;ratioP2;P2;SDS_P1;SDS_P2;PMS_P1;PMS_P2;Temp;Humidity;BMP_temperature;BMP_pressure;BME280_temperature;BME280_humidity;BME280_pressure;Samples;Min_cycle;Max_cycle;Signal;HPM_P1;HPM_P2
2023/03/26 00:02:07;;;;;;;1.70;1.00;;;;;;;7.25;88.64;99759.84;7399340;19;20035;-72
2023/03/26 00:04:35;;;;;;;4.72;1.40;;;;;;;7.21;89.07;99776.47;7396551;19;20019;-70
2023/03/26 00:07:04;;;;;;;2.58;1.38;;;;;;;7.17;90.22;99780.88;7396365;19;20441;-69
2023/03/26 00:09:32;;;;;;;3.83;1.45;;;;;;;7.11;90.49;99782.78;7396592;19;20022;-69
2023/03/26 00:12:01;;;;;;;2.75;1.00;;;;;;;6.98;90.67;99783.06;7398428;19;20007;-69
2023/03/26 00:14:29;;;;;;;3.10;1.05;;;;;;;6.90;91.50;99802.38;7396460;19;20026;-70
2023/03/26 00:17:01;;;;;;;1.92;0.90;;;;;;;6.75;92.12;99798.34;7398618;19;20073;-70
2023/03/26 00:19:29;;;;;;;3.83;1.38;;;;;;;6.61;93.79;99814.28;7396803;19;20031;-70
2023/03/26 00:21:58;;;;;;;3.85;1.58;;;;;;;6.49;95.34;99791.94;7398491;19;20081;-70
2023/03/26 00:24:28;;;;;;;3.15;1.60;;;;;;;6.41;96.56;99804.25;7396050;19;20019;-69
2023/03/26 00:26:58;;;;;;;2.17;1.65;;;;;;;6.32;97.13;99808.75;7396683;19;20018;-69
2023/03/26 00:29:26;;;;;;;2.08;1.73;;;;;;;6.25;97.37;99798.50;7397810;19;20505;-68
2023/03/26 00:31:55;;;;;;;4.97;1.73;;;;;;;6.21;98.16;99805.50;7398072;19;20073;-70
2023/03/26 00:34:27;;;;;;;3.58;2.00;;;;;;;6.13;98.68;99799.56;7396420;19;20028;-69
2023/03/26 00:37:01;;;;;;;4.45;2.10;;;;;;;6.13;99.24;99792.63;7398365;19;20411;-70
2023/03/26 00:39:34;;;;;;;;;;;;;;;6.12;99.30;99801.31;7399206;19;20035;-69
2023/03/26 00:42:05;;;;;;;2.50;1.50;;;;;;;6.10;99.79;99797.03;7397435;19;19929;-68
2023/03/26 00:44:34;;;;;;;4.15;2.05;;;;;;;6.09;99.66;99796.19;7395664;19;20031;-69
2023/03/26 00:47:03;;;;;;;4.10;1.90;;;;;;;6.08;99.83;99785.78;7395311;19;20027;-69
2023/03/26 00:49:34;;;;;;;4.03;1.70;;;;;;;6.07;99.97;99790.13;7397454;19;20082;-70
2023/03/26 00:52:03;;;;;;;5.63;1.83;;;;;;;6.07;99.69;99791.88;7395280;19;20479;-68
2023/03/26 00:54:31;;;;;;;3.10;1.75;;;;;;;6.07;99.61;99790.13;7395501;19;20073;-67
2023/03/26 00:57:00;;;;;;;4.07;2.00;;;;;;;6.08;99.24;99785.78;7396900;19;20517;-68
2023/03/26 00:59:29;;;;;;;3.58;1.92;;;;;;;6.09;98.74;99793.56;7394476;19;20027;-68
2023/03/26 01:01:57;;;;;;;3.00;1.75;;;;;;;6.11;98.12;99801.34;7395664;19;20033;-68
2023/03/26 01:04:29;;;;;;;3.88;1.70;;;;;;;6.11;98.06;99788.34;7395027;19;20442;-69
2023/03/26 01:07:04;;;;;;;2.55;1.67;;;;;;;6.12;97.35;99790.06;7395551;19;20010;-71
2023/03/26 01:09:37;;;;;;;3.83;2.08;;;;;;;6.14;97.13;99788.25;7396441;19;20014;-69
2023/03/26 01:12:10;;;;;;;3.50;1.55;;;;;;;6.18;97.53;99789.94;7394748;19;20018;-71
2023/03/26 01:14:46;;;;;;;4.80;1.73;;;;;;;6.19;95.87;99791.63;7392322;19;20018;-68
2023/03/26 01:17:17;;;;;;;4.40;1.48;;;;;;;6.17;96.81;99789.06;7396554;19;20019;-69
2023/03/26 01:19:53;;;;;;;3.22;2.00;;;;;;;6.22;97.56;99789.00;7396962;19;20011;-69
2023/03/26 01:22:26;;;;;;;5.22;1.52;;;;;;;6.24;97.30;99783.75;7394430;19;20094;-69
2023/03/26 01:24:57;;;;;;;5.72;1.58;;;;;;;6.24;96.53;99781.13;7394630;19;20017;-69
2023/03/26 01:27:33;;;;;;;2.13;1.20;;;;;;;6.25;95.50;99785.47;7395631;19;20023;-72
2023/03/26 01:30:16;;;;;;;3.35;1.10;;;;;;;6.26;95.90;99787.19;7398558;19;20006;-68
2023/03/26 01:32:57;;;;;;;5.22;1.70;;;;;;;6.25;95.00;99794.13;7397597;19;20504;-68
2023/03/26 01:35:47;;;;;;;2.67;1.08;;;;;;;6.24;93.45;99789.78;7398178;19;20018;-70
2023/03/26 01:38:30;;;;;;;2.60;1.50;;;;;;;6.27;95.56;99805.38;7394994;19;20011;-69
2023/03/26 01:41:10;;;;;;;4.50;1.30;;;;;;;6.27;92.73;99794.97;7397581;19;20048;-71
2023/03/26 01:43:44;;;;;;;4.10;1.17;;;;;;;6.28;94.04;99791.47;7397304;19;20032;-68
2023/03/26 01:46:16;;;;;;;3.10;1.35;;;;;;;6.25;93.02;99788.91;7395469;19;20513;-69
2023/03/26 01:51:37;;;;;;;1.92;1.20;;;;;;;6.33;93.36;99789.63;7394215;19;20011;-69
2023/03/26 01:54:09;;;;;;;3.47;1.40;;;;;;;6.35;93.85;99790.44;7394531;19;20022;-70
2023/03/26 01:56:47;;;;;;;2.40;1.50;;;;;;;6.38;92.46;99783.47;7396481;19;20102;-68
2023/03/26 01:59:30;;;;;;;4.15;1.20;;;;;;;6.39;93.09;99787.81;7395900;19;20086;-68
2023/03/26 02:02:05;;;;;;;3.63;1.50;;;;;;;6.39;92.30;99787.81;7396310;19;20027;-67
2023/03/26 02:04:39;;;;;;;2.45;1.80;;;;;;;6.36;90.79;99786.97;7393683;19;20377;-68
2023/03/26 02:07:10;;;;;;;;;;;;;;;6.43;90.32;99795.53;7395726;19;20015;-67
2023/03/26 02:09:47;;;;;;;2.40;1.13;;;;;;;6.45;91.85;99790.28;7393885;19;19918;-68
2023/03/26 02:12:19;;;;;;;2.50;1.20;;;;;;;6.47;92.05;99781.56;7401389;19;20018;-68
2023/03/26 02:14:48;;;;;;;5.47;1.40;;;;;;;6.49;92.03;99786.72;7399861;19;20041;-67
2023/03/26 02:17:18;;;;;;;2.40;1.35;;;;;;;6.49;91.97;99784.13;7403155;19;20031;-68
2023/03/26 02:19:46;;;;;;;4.53;1.63;;;;;;;6.54;89.73;99791.84;7402912;19;20014;-68
2023/03/26 02:22:15;;;;;;;2.85;1.70;;;;;;;6.57;91.03;99795.25;7399542;19;20502;-69
2023/03/26 02:24:44;;;;;;;4.20;1.30;;;;;;;6.59;88.43;99800.44;7400203;19;20029;-69
2023/03/26 02:27:17;;;;;;;1.80;1.58;;;;;;;6.62;89.96;99803.84;7400147;19;20030;-69
2023/03/26 02:29:49;;;;;;;3.35;1.70;;;;;;;6.62;90.15;99798.63;7400119;19;20015;-69
2023/03/26 02:32:18;;;;;;;3.97;1.58;;;;;;;6.63;89.69;99797.72;7402525;19;20022;-68
2023/03/26 02:34:50;;;;;;;5.10;1.70;;;;;;;6.64;91.19;99801.19;7399068;19;20022;-68
2023/03/26 02:37:19;;;;;;;3.58;1.65;;;;;;;6.65;90.87;99803.75;7399793;19;20031;-68
2023/03/26 02:39:47;;;;;;;3.03;1.70;;;;;;;6.65;89.48;99803.75;7399725;19;20025;-69
2023/03/26 02:42:16;;;;;;;2.60;1.60;;;;;;;6.66;90.00;99808.09;7399710;19;20019;-68
2023/03/26 02:44:48;;;;;;;3.70;2.20;;;;;;;6.69;90.37;99807.16;7399075;19;20015;-67
2023/03/26 02:47:16;;;;;;;2.92;1.80;;;;;;;6.67;89.34;99809.81;7399946;19;20035;-68
2023/03/26 02:49:45;;;;;;;3.67;1.73;;;;;;;6.69;90.24;99809.78;7399302;19;20018;-68
2023/03/26 02:52:15;;;;;;;2.63;1.65;;;;;;;6.69;91.28;99809.78;7399170;19;20019;-68
2023/03/26 02:54:44;;;;;;;3.28;2.03;;;;;;;6.60;90.28;99792.56;7398507;19;20010;-68
2023/03/26 02:57:13;;;;;;;5.25;1.70;;;;;;;6.72;91.03;99811.47;7401978;19;20021;-67
2023/03/26 02:59:41;;;;;;;3.70;1.90;;;;;;;6.72;91.03;99808.84;7398734;19;20081;-68
2023/03/26 03:02:13;;;;;;;3.85;1.80;;;;;;;6.72;91.47;99811.47;7399023;19;20037;-68
2023/03/26 03:04:42;;;;;;;4.13;1.63;;;;;;;6.72;90.90;99807.09;7400227;19;20070;-68
2023/03/26 03:07:16;;;;;;;3.15;1.70;;;;;;;6.72;91.90;99801.88;7398835;19;20015;-68
2023/03/26 03:09:45;;;;;;;4.18;2.40;;;;;;;6.72;91.86;99806.25;7401685;19;20077;-69
2023/03/26 03:12:13;;;;;;;4.57;2.17;;;;;;;6.72;91.60;99807.09;7401457;19;20086;-68
2023/03/26 03:14:42;;;;;;;4.38;2.00;;;;;;;6.73;92.38;99814.03;7398351;19;20587;-68
2023/03/26 03:17:13;;;;;;;5.65;2.10;;;;;;;6.72;92.29;99806.25;7398739;19;20027;-69
2023/03/26 03:19:41;;;;;;;3.50;1.80;;;;;;;6.71;91.16;99809.72;7398742;19;20032;-70
2023/03/26 03:22:10;;;;;;;3.88;2.10;;;;;;;6.72;92.10;99808.84;7398596;19;20019;-71
2023/03/26 03:24:38;;;;;;;3.53;2.40;;;;;;;6.71;92.66;99813.22;7398575;19;20022;-70
2023/03/26 03:27:07;;;;;;;4.43;2.20;;;;;;;6.71;92.60;99814.94;7398829;19;20025;-70
2023/03/26 03:29:36;;;;;;;3.88;2.45;;;;;;;6.71;92.72;99822.78;7398406;19;20014;-67
2023/03/26 03:32:05;;;;;;;3.85;2.40;;;;;;;6.66;92.38;99810.69;7398218;19;20011;-67
2023/03/26 03:34:37;;;;;;;6.35;2.50;;;;;;;6.66;91.03;99813.31;7398607;19;20094;-68
2023/03/26 03:37:05;;;;;;;4.68;2.35;;;;;;;6.64;92.57;99812.47;7398263;19;20021;-69
2023/03/26 03:39:34;;;;;;;4.57;2.50;;;;;;;6.65;91.97;99822.00;7399016;19;20560;-68
2023/03/26 03:42:02;;;;;;;4.10;2.30;;;;;;;6.66;92.63;99815.91;7401586;19;20019;-68
2023/03/26 03:44:31;;;;;;;4.22;2.08;;;;;;;6.65;93.04;99816.78;7411254;19;20094;-68
2023/03/26 03:46:59;;;;;;;3.63;2.60;;;;;;;6.64;92.51;99815.06;7429342;19;20399;-69
2023/03/26 03:49:28;;;;;;;2.97;2.00;;;;;;;6.64;93.29;99820.28;7429804;19;20010;-69
2023/03/26 03:52:00;;;;;;;3.65;2.35;;;;;;;6.61;92.15;99811.66;7428258;19;20023;-68
2023/03/26 03:54:29;;;;;;;5.65;2.35;;;;;;;6.60;92.72;99816.03;7406819;19;20082;-68
2023/03/26 03:56:57;;;;;;;4.35;3.00;;;;;;;6.56;92.54;99819.59;7397248;19;20018;-69
2023/03/26 03:59:26;;;;;;;3.58;2.45;;;;;;;6.54;93.57;99812.69;7396957;19;20424;-69
2023/03/26 04:01:54;;;;;;;3.95;2.53;;;;;;;6.51;93.77;99819.69;7399507;19;20024;-70
2023/03/26 04:04:23;;;;;;;3.92;2.80;;;;;;;6.48;93.41;99811.06;7396956;19;20376;-69
2023/03/26 04:06:52;;;;;;;2.80;2.10;;;;;;;6.47;93.44;99819.75;7397979;19;20041;-69
2023/03/26 04:09:23;;;;;;;3.38;2.28;;;;;;;6.45;93.12;99821.56;7398926;19;20023;-69
2023/03/26 04:11:52;;;;;;;3.33;2.47;;;;;;;6.44;92.26;99819.84;7399276;19;20428;-69
2023/03/26 04:14:20;;;;;;;4.32;2.42;;;;;;;6.45;92.04;99825.00;7398180;19;20037;-68
2023/03/26 04:16:49;;;;;;;3.85;2.38;;;;;;;6.47;93.35;99823.25;7398094;19;20017;-69
2023/03/26 04:19:18;;;;;;;4.85;2.45;;;;;;;6.47;94.33;99823.25;7407270;19;20053;-68
2023/03/26 04:21:46;;;;;;;3.72;2.70;;;;;;;6.46;92.95;99824.13;7404963;19;20014;-68
2023/03/26 04:24:15;;;;;;;4.63;2.60;;;;;;;6.47;94.59;99814.53;7404230;19;20041;-68
2023/03/26 04:26:46;;;;;;;6.32;2.83;;;;;;;6.43;92.98;99818.09;7397778;19;20021;-68
2023/03/26 04:29:17;;;;;;;3.67;2.80;;;;;;;6.44;94.00;99827.66;7397037;19;20042;-67
2023/03/26 04:31:45;;;;;;;6.03;3.10;;;;;;;6.45;93.19;99825.00;7396704;19;20010;-69
2023/03/26 04:34:23;;;;;;;2.72;2.42;;;;;;;6.45;93.72;99829.38;7394510;19;20022;-66
2023/03/26 04:36:53;;;;;;;5.07;3.22;;;;;;;6.45;93.83;99826.75;7398528;19;20018;-67
2023/03/26 04:39:27;;;;;;;6.18;3.90;;;;;;;6.46;93.65;99831.09;7396570;19;20082;-66
2023/03/26 04:41:59;;;;;;;5.50;3.17;;;;;;;6.46;94.28;99825.88;7396654;19;20018;-66
2023/03/26 04:44:29;;;;;;;5.15;2.97;;;;;;;6.48;93.76;99831.91;7396929;19;20021;-66
2023/03/26 04:46:57;;;;;;;5.43;3.17;;;;;;;6.48;94.46;99826.69;7395865;19;20014;-67
2023/03/26 04:49:26;;;;;;;4.45;2.90;;;;;;;6.50;94.30;99823.16;7395999;19;20011;-67
2023/03/26 04:51:54;;;;;;;7.50;2.95;;;;;;;6.49;94.29;99821.44;7395781;19;20595;-67
2023/03/26 04:54:24;;;;;;;7.70;3.05;;;;;;;6.49;93.65;99826.66;7396912;19;20015;-67
2023/03/26 04:57:04;;;;;;;4.43;2.78;;;;;;;6.50;93.04;99820.56;7396213;19;20078;-67
2023/03/26 04:59:36;;;;;;;4.25;2.83;;;;;;;6.50;94.15;99824.94;7398188;19;20066;-66
2023/03/26 05:02:06;;;;;;;5.00;2.90;;;;;;;6.51;93.17;99830.09;7396856;19;20018;-68
2023/03/26 05:04:37;;;;;;;4.07;2.90;;;;;;;6.53;93.21;99832.66;7396047;19;20022;-66
2023/03/26 05:07:06;;;;;;;5.60;3.13;;;;;;;6.54;93.56;99825.72;7397308;19;20025;-67
2023/03/26 05:09:35;;;;;;;6.57;2.53;;;;;;;6.54;93.30;99825.72;7397582;19;20489;-66
2023/03/26 05:12:06;;;;;;;4.57;2.85;;;;;;;6.55;94.33;99819.63;7395633;19;20014;-66
2023/03/26 05:14:35;;;;;;;4.00;2.55;;;;;;;6.55;94.33;99820.47;7394908;19;20066;-66
2023/03/26 05:17:04;;;;;;;5.85;2.60;;;;;;;6.47;93.79;99812.81;7395127;19;20086;-68
2023/03/26 05:19:33;;;;;;;6.68;2.42;;;;;;;6.57;93.72;99825.66;7395079;19;20130;-67
2023/03/26 05:22:02;;;;;;;5.20;2.28;;;;;;;6.57;93.02;99823.94;7395427;19;20018;-67
2023/03/26 05:24:30;;;;;;;3.25;2.00;;;;;;;6.57;93.21;99825.66;7394853;19;20377;-66
2023/03/26 05:26:59;;;;;;;7.63;2.67;;;;;;;6.58;93.68;99830.81;7395935;19;20011;-67
2023/03/26 05:29:30;;;;;;;4.30;2.70;;;;;;;6.58;93.48;99828.22;7394749;19;20020;-66
2023/03/26 05:31:58;;;;;;;4.20;2.40;;;;;;;6.60;91.41;99833.44;7395415;19;20014;-67
2023/03/26 05:34:27;;;;;;;3.70;2.47;;;;;;;6.60;93.12;99839.50;7394340;19;20471;-67
2023/03/26 05:36:56;;;;;;;6.15;2.08;;;;;;;6.63;93.21;99839.41;7396999;19;20024;-67
2023/03/26 05:39:26;;;;;;;5.63;2.60;;;;;;;6.64;93.19;99841.13;7394470;19;20279;-66
2023/03/26 05:41:54;;;;;;;4.53;2.00;;;;;;;6.65;92.94;99834.19;7395594;19;20018;-66
2023/03/26 05:44:23;;;;;;;3.97;2.63;;;;;;;6.65;90.56;99836.78;7394859;19;20373;-66
2023/03/26 05:46:54;;;;;;;5.30;2.35;;;;;;;6.65;91.60;99836.78;7394248;19;20078;-67
2023/03/26 05:49:22;;;;;;;7.10;2.47;;;;;;;6.67;92.18;99838.47;7394024;19;20021;-68
2023/03/26 05:51:51;;;;;;;4.30;2.50;;;;;;;6.61;92.44;99829.91;7394249;19;20015;-66
2023/03/26 05:54:19;;;;;;;5.72;2.28;;;;;;;6.71;91.08;99836.69;7394204;19;20470;-65
2023/03/26 05:56:48;;;;;;;7.15;3.13;;;;;;;6.74;93.13;99836.59;7394215;19;20022;-67
2023/03/26 05:59:16;;;;;;;3.50;2.20;;;;;;;6.75;93.11;99829.63;7395254;19;20014;-67
2023/03/26 06:01:46;;;;;;;6.22;2.80;;;;;;;6.76;91.70;99829.63;7394237;19;20018;-66
2023/03/26 06:04:17;;;;;;;4.95;2.10;;;;;;;6.79;92.38;99841.72;7393942;19;20370;-67
2023/03/26 06:06:46;;;;;;;8.98;2.65;;;;;;;6.77;92.01;99826.09;7393806;19;20025;-67
2023/03/26 06:09:15;;;;;;;4.07;2.15;;;;;;;6.83;91.74;99838.16;7393439;19;20010;-66
2023/03/26 06:11:44;;;;;;;5.32;2.42;;;;;;;6.85;91.10;99837.25;7395629;19;20369;-66
2023/03/26 06:14:12;;;;;;;7.07;2.33;;;;;;;6.87;89.14;99845.03;7393439;19;20050;-66
2023/03/26 06:16:41;;;;;;;6.88;2.00;;;;;;;6.90;91.74;99839.75;7393920;19;20074;-67
2023/03/26 06:19:09;;;;;;;5.50;1.95;;;;;;;6.92;89.28;99851.00;7393123;19;20021;-67
2023/03/26 06:21:40;;;;;;;5.28;1.65;;;;;;;6.94;90.75;99849.22;7393537;19;20078;-66
2023/03/26 06:24:09;;;;;;;4.05;2.25;;;;;;;6.95;89.02;99850.06;7393149;19;20095;-65
2023/03/26 06:26:37;;;;;;;6.00;2.25;;;;;;;6.97;88.65;99856.97;7392929;19;20019;-66
2023/03/26 06:29:06;;;;;;;3.05;1.75;;;;;;;7.03;90.05;99852.50;7393119;19;20014;-67
2023/03/26 06:31:34;;;;;;;5.90;2.03;;;;;;;7.04;88.76;99849.03;7393315;19;20014;-66
2023/03/26 06:34:03;;;;;;;7.65;2.20;;;;;;;7.07;88.32;99848.97;7393345;19;20019;-67
2023/03/26 06:36:31;;;;;;;7.65;2.08;;;;;;;7.08;88.59;99848.09;7394822;19;20086;-67
2023/03/26 06:39:02;;;;;;;4.65;1.90;;;;;;;7.10;88.90;99852.38;7394634;19;20090;-66
2023/03/26 06:41:37;;;;;;;3.25;1.75;;;;;;;7.12;89.15;99847.13;7395659;19;20019;-67
2023/03/26 06:44:06;;;;;;;4.55;2.45;;;;;;;7.16;86.86;99851.38;7393344;19;20092;-67
2023/03/26 06:46:34;;;;;;;7.90;1.95;;;;;;;7.22;88.52;99845.16;7394468;19;20078;-67
2023/03/26 06:49:03;;;;;;;4.10;1.95;;;;;;;7.25;87.47;99843.31;7392403;19;20010;-66
2023/03/26 06:51:31;;;;;;;7.75;2.30;;;;;;;7.28;82.06;99838.06;7392908;19;20014;-66
2023/03/26 06:54:02;;;;;;;7.45;1.98;;;;;;;7.32;81.88;99865.78;7391876;19;20486;-66
2023/03/26 06:56:30;;;;;;;4.00;2.13;;;;;;;7.38;86.16;99848.28;7392076;19;20017;-66
2023/03/26 06:58:59;;;;;;;5.82;1.77;;;;;;;7.37;84.13;99850.03;7398555;19;20377;-66
2023/03/26 07:01:27;;;;;;;7.53;1.98;;;;;;;7.42;86.15;99855.13;7401740;19;20033;-67
2023/03/26 07:03:57;;;;;;;6.43;2.30;;;;;;;7.46;84.28;99846.34;7400180;19;20094;-66
2023/03/26 07:06:25;;;;;;;5.55;1.58;;;;;;;7.50;84.00;99851.44;7398686;19;20019;-65
2023/03/26 07:08:54;;;;;;;2.35;1.33;;;;;;;7.53;79.34;99853.13;7398824;19;20070;-67
2023/03/26 07:11:25;;;;;;;3.22;1.52;;;;;;;7.51;81.43;99854.94;7401483;19;20027;-67
2023/03/26 07:13:55;;;;;;;5.72;1.50;;;;;;;7.52;81.21;99855.78;7398573;19;20019;-67
2023/03/26 07:16:23;;;;;;;6.13;2.08;;;;;;;7.52;79.82;99858.38;7397763;19;20082;-66
2023/03/26 07:18:54;;;;;;;6.40;1.38;;;;;;;7.48;79.70;99857.59;7398071;19;20044;-65
2023/03/26 07:21:23;;;;;;;5.88;1.58;;;;;;;7.46;79.04;99847.19;7398354;19;20015;-66
2023/03/26 07:23:53;;;;;;;4.00;1.30;;;;;;;7.43;77.16;99855.13;7400144;19;20023;-67
2023/03/26 07:26:31;;;;;;;6.03;1.42;;;;;;;7.39;75.94;99863.03;7398203;19;20014;-67
2023/03/26 07:29:09;;;;;;;7.53;1.40;;;;;;;7.40;81.06;99856.94;7398351;19;20014;-67
2023/03/26 07:31:46;;;;;;;3.30;1.38;;;;;;;7.40;81.06;99846.50;7400921;19;20015;-67
2023/03/26 07:34:30;;;;;;;12.30;3.40;;;;;;;7.43;79.29;99856.84;7398125;19;20035;-67
2023/03/26 07:37:05;;;;;;;12.60;4.18;;;;;;;7.42;77.67;99869.06;7400818;19;20078;-66
2023/03/26 07:39:53;;;;;;;5.47;1.75;;;;;;;7.46;79.19;99859.41;7397429;19;20036;-67
2023/03/26 07:42:36;;;;;;;8.32;2.38;;;;;;;7.46;78.70;99862.88;7398054;19;20022;-66
2023/03/26 07:45:18;;;;;;;4.55;1.25;;;;;;;7.43;80.35;99829.03;7400532;19;20018;-67
2023/03/26 07:47:48;;;;;;;7.60;2.20;;;;;;;7.58;81.14;99858.25;7399231;19;20018;-67
2023/03/26 07:50:17;;;;;;;27.60;10.73;;;;;;;7.62;76.49;99858.16;7396585;19;20384;-67
2023/03/26 07:52:46;;;;;;;9.80;4.15;;;;;;;7.68;78.95;99843.22;7399368;19;20022;-67
2023/03/26 07:55:17;;;;;;;7.50;3.05;;;;;;;7.73;74.73;99860.50;7399998;19;20029;-67
2023/03/26 07:57:57;;;;;;;5.45;2.40;;;;;;;7.79;78.68;99847.28;7396850;19;20023;-67
2023/03/26 08:00:32;;;;;;;4.85;1.60;;;;;;;7.86;80.22;99837.56;7397862;19;20014;-66
2023/03/26 08:03:33;;;;;;;4.15;1.08;;;;;;;7.92;72.49;99842.63;7397473;19;20035;-67
2023/03/26 08:06:11;;;;;;;3.63;1.20;;;;;;;7.92;74.83;99826.97;7399225;19;20060;-66
2023/03/26 08:08:47;;;;;;;3.92;1.38;;;;;;;8.09;77.91;99841.34;7394538;19;20036;-67
2023/03/26 08:11:30;;;;;;;7.85;1.35;;;;;;;8.17;73.41;99828.94;7397122;19;20014;-68
2023/03/26 08:14:10;;;;;;;3.90;1.20;;;;;;;8.28;72.81;99828.66;7396554;19;20014;-67
2023/03/26 08:16:44;;;;;;;6.15;1.00;;;;;;;8.34;70.80;99832.84;7398765;19;20485;-67
2023/03/26 08:19:27;;;;;;;2.60;1.20;;;;;;;8.45;77.85;99825.56;7399374;19;20039;-67
2023/03/26 08:22:00;;;;;;;4.07;1.23;;;;;;;8.53;76.46;99825.38;7398466;19;20078;-66
2023/03/26 08:24:36;;;;;;;2.67;0.70;;;;;;;8.61;75.08;99824.25;7395816;19;20014;-68
2023/03/26 08:27:13;;;;;;;4.47;1.33;;;;;;;8.70;73.85;99815.31;7398536;19;20025;-68
2023/03/26 08:29:53;;;;;;;1.98;0.80;;;;;;;8.78;74.60;99815.94;7395843;19;20425;-69
2023/03/26 08:32:23;;;;;;;4.05;1.27;;;;;;;8.82;71.45;99821.94;7397884;19;20010;-68
2023/03/26 08:34:51;;;;;;;3.03;0.82;;;;;;;8.79;69.47;99817.63;7396085;19;20385;-66
2023/03/26 08:37:19;;;;;;;3.85;1.15;;;;;;;8.84;71.85;99806.22;7395428;19;20524;-69
2023/03/26 08:39:48;;;;;;;2.10;0.70;;;;;;;8.84;65.02;99812.28;7395532;19;20028;-68
2023/03/26 08:42:52;;;;;;;3.15;1.05;;;;;;;8.89;67.58;99806.94;7398087;19;20091;-67
2023/03/26 08:46:00;;;;;;;2.20;1.00;;;;;;;8.95;68.59;99809.34;7396948;19;20025;-68
2023/03/26 08:48:57;;;;;;;1.85;0.63;;;;;;;9.04;67.69;99805.59;7396153;19;20197;-67
2023/03/26 08:52:03;;;;;;;4.93;0.90;;;;;;;9.05;60.65;99817.75;7398045;19;20014;-66
2023/03/26 08:54:49;;;;;;;3.53;0.63;;;;;;;9.06;61.47;99802.03;7395193;19;20485;-67
2023/03/26 08:57:38;;;;;;;3.22;0.88;;;;;;;9.09;60.86;99806.31;7396810;19;20022;-67
2023/03/26 09:00:44;;;;;;;5.03;0.70;;;;;;;9.16;63.10;99793.91;7400481;19;20050;-66
2023/03/26 09:03:36;;;;;;;2.92;0.55;;;;;;;9.23;65.06;99791.03;7394090;19;20037;-66
2023/03/26 09:06:25;;;;;;;4.95;1.27;;;;;;;9.27;61.29;99802.28;7397267;19;20078;-66
2023/03/26 09:09:21;;;;;;;4.70;1.20;;;;;;;9.27;61.06;99786.56;7396892;19;20037;-66
2023/03/26 09:12:09;;;;;;;4.00;1.30;;;;;;;9.38;66.36;99783.63;7396986;19;20023;-69
2023/03/26 09:15:04;;;;;;;1.08;0.60;;;;;;;9.49;66.89;99778.03;7395927;19;20030;-69
2023/03/26 09:18:14;;;;;;;3.45;0.70;;;;;;;9.41;61.83;99775.66;7396809;19;20018;-69
2023/03/26 09:21:20;;;;;;;2.45;0.75;;;;;;;9.59;66.47;99774.19;7394456;19;20015;-75
2023/03/26 09:24:26;;;;;;;3.15;1.00;;;;;;;9.67;64.63;99782.66;7395035;19;20022;-69
2023/03/26 09:27:09;;;;;;;4.07;1.27;;;;;;;9.69;63.51;99788.72;7393964;19;20078;-69
2023/03/26 09:30:11;;;;;;;3.70;1.00;;;;;;;9.70;63.59;99777.31;7395597;19;20018;-70
2023/03/26 09:33:16;;;;;;;3.50;1.10;;;;;;;9.76;65.33;99771.84;7395296;19;20015;-68
2023/03/26 09:35:54;;;;;;;2.40;0.90;;;;;;;9.81;69.47;99783.94;7395445;19;20074;-69
2023/03/26 09:38:42;;;;;;;5.55;1.00;;;;;;;9.87;67.79;99787.22;7396236;19;20066;-68
2023/03/26 09:41:17;;;;;;;3.38;0.70;;;;;;;9.91;70.53;99782.75;7397912;19;20037;-68
2023/03/26 09:44:28;;;;;;;3.13;1.25;;;;;;;9.91;65.97;99783.59;7401563;19;20019;-68
2023/03/26 09:47:21;;;;;;;3.47;1.10;;;;;;;9.92;68.40;99790.53;7399211;19;20074;-68
2023/03/26 09:49:57;;;;;;;3.05;1.10;;;;;;;9.89;68.06;99789.78;7395931;19;20089;-69
2023/03/26 09:52:49;;;;;;;5.70;1.17;;;;;;;9.90;66.32;99789.72;7395856;19;20027;-69
2023/03/26 09:55:35;;;;;;;4.20;1.30;;;;;;;9.90;66.49;99787.09;7394889;19;20370;-69
2023/03/26 09:58:33;;;;;;;2.63;1.02;;;;;;;9.93;66.47;99791.38;7395358;19;20025;-69
2023/03/26 10:01:09;;;;;;;5.43;2.42;;;;;;;9.93;71.05;99797.50;7396528;19;20013;-68
2023/03/26 10:03:47;;;;;;;17.45;10.18;;;;;;;9.90;66.83;99783.63;7393703;19;20419;-67
2023/03/26 10:06:28;;;;;;;2.65;1.20;;;;;;;9.88;67.18;99788.94;7394420;19;20018;-65
2023/03/26 10:09:31;;;;;;;2.97;1.20;;;;;;;9.88;69.92;99785.44;7394519;19;20082;-68
2023/03/26 10:12:15;;;;;;;3.35;1.30;;;;;;;9.92;66.87;99787.91;7393761;19;20015;-66
2023/03/26 10:14:56;;;;;;;4.25;1.10;;;;;;;9.96;68.44;99788.69;7393524;19;20011;-66
2023/03/26 10:17:44;;;;;;;7.65;2.35;;;;;;;9.99;66.46;99793.78;7396719;19;20018;-66
2023/03/26 10:20:34;;;;;;;4.95;1.35;;;;;;;10.00;67.20;99782.41;7395264;19;20034;-67
2023/03/26 10:23:14;;;;;;;8.82;1.90;;;;;;;10.06;68.68;99782.19;7395183;19;20362;-68
2023/03/26 10:25:55;;;;;;;6.65;2.40;;;;;;;10.09;68.75;99776.00;7396226;19;20022;-68
2023/03/26 10:28:40;;;;;;;4.90;2.28;;;;;;;10.07;64.75;99780.41;7395547;19;20023;-68
2023/03/26 10:31:27;;;;;;;4.32;1.95;;;;;;;10.04;67.41;99754.34;7397407;19;20025;-68
2023/03/26 10:34:10;;;;;;;4.15;1.55;;;;;;;10.16;67.07;99771.38;7402537;19;20031;-70
2023/03/26 10:36:43;;;;;;;4.85;1.33;;;;;;;10.18;70.74;99767.78;7404745;19;20014;-69
2023/03/26 10:39:32;;;;;;;2.95;1.42;;;;;;;10.17;65.74;99760.84;7405744;19;20414;-69
2023/03/26 10:42:15;;;;;;;3.83;1.10;;;;;;;10.15;66.75;99765.28;7407750;19;20014;-69
2023/03/26 10:45:10;;;;;;;4.78;1.30;;;;;;;10.14;69.19;99753.09;7423495;19;20041;-68
2023/03/26 10:48:11;;;;;;;4.90;2.00;;;;;;;10.25;67.13;99764.06;7425531;19;20035;-68
2023/03/26 10:51:02;;;;;;;6.82;1.33;;;;;;;10.28;65.48;99753.44;7426505;19;20036;-68
2023/03/26 10:53:37;;;;;;;2.45;1.17;;;;;;;10.34;69.72;99755.00;7414796;19;20022;-68
2023/03/26 10:56:16;;;;;;;4.45;1.73;;;;;;;10.38;70.13;99745.28;7399564;19;20418;-68
2023/03/26 10:58:46;;;;;;;4.63;1.38;;;;;;;10.41;70.57;99747.78;7400221;19;20010;-70
2023/03/26 11:01:23;;;;;;;2.70;1.15;;;;;;;10.46;66.76;99747.63;7402612;19;20413;-69
2023/03/26 11:03:54;;;;;;;3.20;1.60;;;;;;;10.46;67.05;99751.09;7399484;19;20380;-66
2023/03/26 11:06:40;;;;;;;5.03;1.85;;;;;;;10.44;64.05;99750.31;7400270;19;20106;-65
2023/03/26 11:09:21;;;;;;;5.57;1.73;;;;;;;10.41;65.25;99742.53;7399426;19;20047;-65
2023/03/26 11:11:58;;;;;;;4.85;1.73;;;;;;;10.42;64.39;99739.84;7403437;19;20031;-66
2023/03/26 11:14:35;;;;;;;3.00;1.85;;;;;;;10.48;66.88;99749.28;7399979;19;20019;-65
2023/03/26 11:17:14;;;;;;;6.03;2.17;;;;;;;10.54;67.94;99740.31;7404882;19;20029;-65
2023/03/26 11:19:51;;;;;;;4.90;1.95;;;;;;;10.59;64.72;99741.88;7404283;19;20022;-65
2023/03/26 11:22:31;;;;;;;4.10;2.58;;;;;;;10.63;64.21;99734.72;7401802;19;20015;-66
2023/03/26 11:25:27;;;;;;;5.97;2.90;;;;;;;10.67;63.81;99738.09;7401570;19;20402;-66
2023/03/26 11:28:08;;;;;;;6.88;2.33;;;;;;;10.69;66.46;99725.75;7400782;19;20074;-66
2023/03/26 11:30:48;;;;;;;3.83;2.00;;;;;;;10.71;64.72;99721.31;7403192;19;20019;-66
2023/03/26 11:33:22;;;;;;;5.43;3.30;;;;;;;10.73;64.29;99724.75;7402672;19;20027;-66
2023/03/26 11:35:53;;;;;;;4.60;2.75;;;;;;;10.70;63.09;99728.34;7404996;19;20074;-66
2023/03/26 11:38:28;;;;;;;2.70;2.50;;;;;;;10.71;63.37;99710.81;7403602;19;20014;-66
2023/03/26 11:40:58;;;;;;;6.60;3.50;;;;;;;10.71;67.09;99708.19;7403437;19;20032;-66
2023/03/26 11:43:32;;;;;;;4.80;3.15;;;;;;;10.74;67.63;99703.69;7401796;19;20018;-66
2023/03/26 11:46:03;;;;;;;10.90;4.32;;;;;;;10.81;68.88;99706.09;7403341;19;20028;-65
2023/03/26 11:48:37;;;;;;;5.70;2.95;;;;;;;10.87;68.03;99706.69;7401593;19;20028;-65
2023/03/26 11:51:09;;;;;;;6.60;3.72;;;;;;;10.91;64.27;99697.78;7399933;19;20025;-65
2023/03/26 11:53:47;;;;;;;5.38;4.35;;;;;;;10.94;65.54;99693.31;7400929;19;20025;-65
2023/03/26 11:56:25;;;;;;;6.43;4.10;;;;;;;11.00;66.34;99693.09;7401421;19;20014;-65
2023/03/26 11:58:59;;;;;;;7.05;3.47;;;;;;;11.01;65.98;99686.91;7401118;19;20011;-65
2023/03/26 12:01:30;;;;;;;8.48;4.13;;;;;;;11.08;65.54;99689.22;7398511;19;20014;-65
2023/03/26 12:04:05;;;;;;;5.78;3.97;;;;;;;11.12;66.37;99684.72;7398471;19;20014;-65
2023/03/26 12:06:34;;;;;;;5.53;4.40;;;;;;;11.18;66.90;99681.81;7400082;19;20425;-65
2023/03/26 12:09:05;;;;;;;6.28;3.65;;;;;;;11.27;66.79;99684.97;7397923;19;20022;-65
2023/03/26 12:11:35;;;;;;;5.88;3.42;;;;;;;11.35;66.24;99680.28;7398991;19;20017;-65
2023/03/26 12:14:12;;;;;;;4.70;3.40;;;;;;;11.43;65.92;99672.91;7398147;19;20082;-65
2023/03/26 12:16:59;;;;;;;6.15;3.40;;;;;;;11.50;61.33;99669.13;7397888;19;20462;-63
2023/03/26 12:19:28;;;;;;;8.40;4.45;;;;;;;11.60;64.92;99673.97;7397752;19;20032;-65
2023/03/26 12:21:56;;;;;;;6.55;3.78;;;;;;;11.69;65.57;99673.56;7397474;19;20123;-64